Tonos — V7EF2 — position and weather

sailwx.info

Track history (hours):
 
Tides and Currents Weather Stations Pressure Air Temp Water Temp Dewpoint Dewpoint Depression Visibility Wind Speed Wind Dir Waves Ship Positions

Tonos

Last reported at 2016-May-27 12:30 UTC. Time now 2016-Jun-01 01:43 UTC.
Position N 01°58' E 102°15'.

Length 274 m; draft 8.5 m.

Type: Tanker. MMSI: 538006541.

Date/timePositionNaut miles runAvg speedWind from/ knotsBaromVisibWave heightAir tempDewpointWater temp
2016-May-27 12:30N 01°58' E 102°15'1313.8
2016-May-27 11:34N 01°52' E 102°26'1514.4
2016-May-27 10:33N 01°45' E 102°39'5613.1
2016-May-27 06:18N 01°14' E 103°25'1012.1
2016-May-27 05:28N 01°12' E 103°35'1112.1
2016-May-27 04:33N 01°09' E 103°45'1212.2
2016-May-27 03:33N 01°15' E 103°56'2 0.8
2016-May-27 01:31N 01°16' E 103°57'0 0.0
2016-May-27 00:28N 01°16' E 103°57'0 0.0
2016-May-26 22:25N 01°16' E 103°57'0 0.0
2016-May-26 21:28N 01°16' E 103°57'0 0.0
2016-May-26 20:31N 01°16' E 103°57'0 0.0
2016-May-26 19:31N 01°16' E 103°57'0 0.0
2016-May-26 17:31N 01°16' E 103°57'0 0.2
2016-May-26 16:22N 01°16' E 103°56'0 0.1
2016-May-26 15:16N 01°16' E 103°56'0 0.0
2016-May-26 14:22N 01°16' E 103°56'0 0.1
2016-May-26 13:31N 01°16' E 103°56'0 0.1
2016-May-26 12:31N 01°16' E 103°57'0 0.0
2016-May-26 11:28N 01°16' E 103°57'0 0.1
2016-May-26 10:28N 01°16' E 103°57'0 0.0
2016-May-26 09:13N 01°16' E 103°57'0 0.1
2016-May-26 08:28N 01°16' E 103°57'0 0.1
2016-May-26 07:31N 01°16' E 103°57'3 3.1
2016-May-26 06:33N 01°16' E 103°60'  
2016-May-18 22:03N 29°54' E 123°16'713.1
2016-May-18 21:33N 30°01' E 123°16'5513.5
2016-May-18 17:30N 30°56' E 123°22'1613.2
2016-May-18 16:16N 31°12' E 123°26'1013.4
2016-May-18 15:31N 31°22' E 123°24'1212.5
2016-May-18 14:33N 31°34' E 123°22'1712.6
2016-May-18 13:13N 31°50' E 123°23'29513.0
2016-May-17 14:33N 36°45' E 123°17'1414.0
2016-May-17 13:33N 36°59' E 123°17'1414.4
2016-May-17 12:33N 37°13' E 123°16'  
Track history (hours):
 
Tides and Currents Weather Stations Pressure Air Temp Water Temp Dewpoint Dewpoint Depression Visibility Wind Speed Wind Dir Waves Ship Positions

Tonos

Last reported at 2016-May-27 12:30 UTC. Time now 2016-Jun-01 01:43 UTC.
Position N 01°58' E 102°15'.

Length 274 m; draft 8.5 m.

Type: Tanker. MMSI: 538006541.

Date/timePositionNaut miles runAvg speedWind from/ knotsBaromVisibWave heightAir tempDewpointWater temp
2016-May-27 12:30N 01°58' E 102°15'1313.8
2016-May-27 11:34N 01°52' E 102°26'1514.4
2016-May-27 10:33N 01°45' E 102°39'5613.1
2016-May-27 06:18N 01°14' E 103°25'1012.1
2016-May-27 05:28N 01°12' E 103°35'1112.1
2016-May-27 04:33N 01°09' E 103°45'1212.2
2016-May-27 03:33N 01°15' E 103°56'2 0.8
2016-May-27 01:31N 01°16' E 103°57'0 0.0
2016-May-27 00:28N 01°16' E 103°57'0 0.0
2016-May-26 22:25N 01°16' E 103°57'0 0.0
2016-May-26 21:28N 01°16' E 103°57'0 0.0
2016-May-26 20:31N 01°16' E 103°57'0 0.0
2016-May-26 19:31N 01°16' E 103°57'0 0.0
2016-May-26 17:31N 01°16' E 103°57'0 0.2
2016-May-26 16:22N 01°16' E 103°56'0 0.1
2016-May-26 15:16N 01°16' E 103°56'0 0.0
2016-May-26 14:22N 01°16' E 103°56'0 0.1
2016-May-26 13:31N 01°16' E 103°56'0 0.1
2016-May-26 12:31N 01°16' E 103°57'0 0.0
2016-May-26 11:28N 01°16' E 103°57'0 0.1
2016-May-26 10:28N 01°16' E 103°57'0 0.0
2016-May-26 09:13N 01°16' E 103°57'0 0.1
2016-May-26 08:28N 01°16' E 103°57'0 0.1
2016-May-26 07:31N 01°16' E 103°57'3 3.1
2016-May-26 06:33N 01°16' E 103°60'  
2016-May-18 22:03N 29°54' E 123°16'713.1
2016-May-18 21:33N 30°01' E 123°16'5513.5
2016-May-18 17:30N 30°56' E 123°22'1613.2
2016-May-18 16:16N 31°12' E 123°26'1013.4
2016-May-18 15:31N 31°22' E 123°24'1212.5
2016-May-18 14:33N 31°34' E 123°22'1712.6
2016-May-18 13:13N 31°50' E 123°23'29513.0
2016-May-17 14:33N 36°45' E 123°17'1414.0
2016-May-17 13:33N 36°59' E 123°17'1414.4
2016-May-17 12:33N 37°13' E 123°16'  

Dump ship's entire track history